createdAt,value
2023-02-05T00:01:43.861Z,2.10
2023-02-05T00:05:45.720Z,2.77
2023-02-05T00:09:47.553Z,1.90
2023-02-05T00:13:49.374Z,2.90
2023-02-05T00:17:51.160Z,4.00
2023-02-05T00:21:52.979Z,3.13
2023-02-05T00:25:54.888Z,2.50
2023-02-05T00:29:56.722Z,2.70
2023-02-05T00:33:58.545Z,3.17
2023-02-05T00:38:00.435Z,1.70
2023-02-05T00:42:02.189Z,4.37
2023-02-05T00:46:04.102Z,2.37
2023-02-05T00:50:06.306Z,3.40
2023-02-05T00:54:08.066Z,2.33
2023-02-05T00:58:10.054Z,1.80
2023-02-05T01:02:11.841Z,4.63
2023-02-05T01:06:13.778Z,2.67
2023-02-05T01:10:15.789Z,1.90
2023-02-05T01:14:17.679Z,2.17
2023-02-05T01:18:19.432Z,2.60
2023-02-05T01:22:21.292Z,2.90
2023-02-05T01:26:23.282Z,3.97
2023-02-05T01:30:25.019Z,3.83
2023-02-05T01:34:26.826Z,4.43
2023-02-05T01:38:28.651Z,2.63
2023-02-05T01:42:32.018Z,2.97
2023-02-05T01:46:34.394Z,2.37
2023-02-05T01:50:54.024Z,2.30
2023-02-05T01:54:57.152Z,2.63
2023-02-05T01:59:16.367Z,3.07
2023-02-05T02:03:18.394Z,1.77
2023-02-05T02:07:21.935Z,3.20
2023-02-05T02:11:23.731Z,3.33
2023-02-05T02:15:26.270Z,2.60
2023-02-05T02:19:40.884Z,2.43
2023-02-05T02:24:34.016Z,3.67
2023-02-05T02:28:46.640Z,4.30
2023-02-05T02:33:09.608Z,3.73
2023-02-05T02:37:40.551Z,4.37
2023-02-05T02:42:08.477Z,3.37
2023-02-05T02:46:23.312Z,3.50
2023-02-05T02:50:33.122Z,4.27
2023-02-05T02:54:36.055Z,3.53
2023-02-05T02:58:50.424Z,4.07
2023-02-05T03:02:55.869Z,4.77
2023-02-05T03:07:06.139Z,4.13
2023-02-05T03:11:13.280Z,4.23
2023-02-05T03:15:15.439Z,3.40
2023-02-05T03:19:17.226Z,4.53
2023-02-05T03:23:19.119Z,5.10
2023-02-05T03:27:22.072Z,3.50
2023-02-05T03:31:33.604Z,3.63
2023-02-05T03:35:59.839Z,4.13
2023-02-05T03:40:26.782Z,3.97
2023-02-05T03:44:50.973Z,4.67
2023-02-05T03:49:20.078Z,3.50
2023-02-05T03:53:32.237Z,5.07
2023-02-05T03:57:49.260Z,3.10
2023-02-05T04:01:51.045Z,3.83
2023-02-05T04:05:52.970Z,3.63
2023-02-05T04:09:54.775Z,3.27
2023-02-05T04:13:56.722Z,4.70
2023-02-05T04:17:58.785Z,4.47
2023-02-05T04:22:00.708Z,4.73
2023-02-05T04:26:02.594Z,5.20
2023-02-05T04:30:06.808Z,4.03
2023-02-05T04:34:08.616Z,4.80
2023-02-05T04:38:12.641Z,3.63
2023-02-05T04:42:14.797Z,4.53
2023-02-05T04:46:16.670Z,6.37
2023-02-05T04:50:18.540Z,3.13
2023-02-05T04:54:20.433Z,4.40
2023-02-05T04:58:22.238Z,3.73
2023-02-05T05:02:24.606Z,3.50
2023-02-05T05:06:26.601Z,3.57
2023-02-05T05:10:28.473Z,4.03
2023-02-05T05:14:30.301Z,4.30
2023-02-05T05:18:32.302Z,4.30
2023-02-05T05:22:34.220Z,3.57
2023-02-05T05:26:36.073Z,4.17
2023-02-05T05:30:42.207Z,3.20
2023-02-05T05:34:44.116Z,2.80
2023-02-05T05:38:46.194Z,4.77
2023-02-05T05:43:06.780Z,3.07
2023-02-05T05:47:08.828Z,3.57
2023-02-05T05:51:10.669Z,4.90
2023-02-05T05:55:12.490Z,3.87
2023-02-05T05:59:14.316Z,4.03
2023-02-05T06:03:16.192Z,4.00
2023-02-05T06:07:18.022Z,4.33
2023-02-05T06:11:19.852Z,3.83
2023-02-05T06:15:21.911Z,3.70
2023-02-05T06:19:23.859Z,4.63
2023-02-05T06:23:25.786Z,3.93
2023-02-05T06:27:30.442Z,6.17
2023-02-05T06:31:32.395Z,7.50
2023-02-05T06:35:34.535Z,3.83
2023-02-05T06:39:37.536Z,4.60
2023-02-05T06:43:39.290Z,4.93
2023-02-05T06:47:44.071Z,5.77
2023-02-05T06:51:45.983Z,5.33
2023-02-05T06:55:47.743Z,4.37
2023-02-05T06:59:52.240Z,4.63
2023-02-05T07:03:56.399Z,3.03
2023-02-05T07:07:58.402Z,3.77
2023-02-05T07:12:00.449Z,3.03
2023-02-05T07:16:06.949Z,4.23
2023-02-05T07:20:09.475Z,4.20
2023-02-05T07:24:14.775Z,3.17
2023-02-05T07:28:16.675Z,3.83
2023-02-05T07:32:19.052Z,4.20
2023-02-05T07:36:23.803Z,2.50
2023-02-05T07:40:25.591Z,3.70
2023-02-05T07:44:27.625Z,4.27
2023-02-05T07:48:29.801Z,4.37
2023-02-05T07:52:32.383Z,4.83
2023-02-05T07:56:34.706Z,5.33
2023-02-05T08:00:36.683Z,4.00
2023-02-05T08:04:45.724Z,2.77
2023-02-05T08:08:47.678Z,3.23
2023-02-05T08:12:49.602Z,3.77
2023-02-05T08:16:51.655Z,4.63
2023-02-05T08:20:54.544Z,3.33
2023-02-05T08:24:56.464Z,4.73
2023-02-05T08:28:59.920Z,2.73
2023-02-05T08:33:01.829Z,5.13
2023-02-05T08:37:04.370Z,3.23
2023-02-05T08:41:12.823Z,3.90
2023-02-05T08:45:17.346Z,4.77
2023-02-05T08:49:24.186Z,4.07
2023-02-05T08:53:26.271Z,3.10
2023-02-05T08:57:30.105Z,5.23
2023-02-05T09:01:32.336Z,3.57
2023-02-05T09:05:34.619Z,2.63
2023-02-05T09:09:47.610Z,4.43
2023-02-05T09:14:41.168Z,3.13
2023-02-05T09:18:46.334Z,3.10
2023-02-05T09:22:52.367Z,3.73
2023-02-05T09:26:54.739Z,2.10
2023-02-05T09:30:56.941Z,3.17
2023-02-05T09:34:59.045Z,2.57
2023-02-05T09:39:14.702Z,2.43
2023-02-05T09:43:54.888Z,3.13
2023-02-05T09:48:23.835Z,3.30
2023-02-05T09:52:36.477Z,3.50
2023-02-05T09:56:58.407Z,4.53
2023-02-05T10:01:44.008Z,1.83
2023-02-05T10:06:22.155Z,2.07
2023-02-05T10:10:28.866Z,3.10
2023-02-05T10:15:13.109Z,3.43
2023-02-05T10:19:35.309Z,1.70
2023-02-05T10:24:09.122Z,3.10
2023-02-05T10:28:52.001Z,3.73
2023-02-05T10:33:05.835Z,2.20
2023-02-05T10:37:22.761Z,2.60
2023-02-05T10:41:31.026Z,3.50
2023-02-05T10:45:33.349Z,3.63
2023-02-05T10:50:01.407Z,3.33
2023-02-05T10:54:03.612Z,3.20
2023-02-05T10:58:34.950Z,1.83
2023-02-05T11:02:44.682Z,5.23
2023-02-05T11:06:53.167Z,4.60
2023-02-05T11:10:55.183Z,1.87
2023-02-05T11:15:01.017Z,2.27
2023-02-05T11:19:05.138Z,1.93
2023-02-05T11:23:21.138Z,3.77
2023-02-05T11:27:35.170Z,3.57
2023-02-05T11:31:37.118Z,1.70
2023-02-05T11:35:39.120Z,2.67
2023-02-05T11:39:41.187Z,1.77
2023-02-05T11:43:53.003Z,2.37
2023-02-05T11:47:55.074Z,1.27
2023-02-05T11:52:02.506Z,2.63
2023-02-05T11:56:12.695Z,2.50
2023-02-05T12:00:21.982Z,2.83
2023-02-05T12:04:24.087Z,2.53
2023-02-05T12:08:43.036Z,3.33
2023-02-05T12:13:02.981Z,3.43
2023-02-05T12:17:31.477Z,3.17
2023-02-05T12:21:53.813Z,9.23
2023-02-05T12:26:21.017Z,5.20
2023-02-05T12:30:35.190Z,4.47
2023-02-05T12:34:57.421Z,3.93
2023-02-05T12:39:54.669Z,3.40
2023-02-05T12:44:37.768Z,3.13
2023-02-05T12:49:11.738Z,2.33
2023-02-05T12:53:44.751Z,2.37
2023-02-05T12:58:04.893Z,2.50
2023-02-05T13:02:19.720Z,2.73
2023-02-05T13:06:29.966Z,4.07
2023-02-05T13:10:56.729Z,2.83
2023-02-05T13:15:21.193Z,1.20
2023-02-05T13:19:34.291Z,0.90
2023-02-05T13:23:59.120Z,1.70
2023-02-05T13:28:23.095Z,1.03
2023-02-05T13:32:25.997Z,1.30
2023-02-05T13:37:14.662Z,2.97
2023-02-05T13:41:25.655Z,2.03
2023-02-05T13:45:48.949Z,1.63
2023-02-05T13:50:33.755Z,1.63
2023-02-05T13:54:40.853Z,1.67
2023-02-05T13:58:59.161Z,2.07
2023-02-05T14:03:05.785Z,2.50
2023-02-05T14:07:30.855Z,1.53
2023-02-05T14:12:16.754Z,2.83
2023-02-05T14:16:26.937Z,7.03
2023-02-05T14:20:42.011Z,3.90
2023-02-05T14:24:48.373Z,4.33
2023-02-05T14:28:55.359Z,2.83
2023-02-05T14:33:39.230Z,2.13
2023-02-05T14:37:43.007Z,2.20
2023-02-05T14:42:00.143Z,3.23
2023-02-05T14:46:44.773Z,2.27
2023-02-05T14:51:27.005Z,2.70
2023-02-05T14:56:35.576Z,2.77
2023-02-05T15:00:47.745Z,3.80
2023-02-05T15:05:04.617Z,2.13
2023-02-05T15:09:44.597Z,2.57
2023-02-05T15:14:24.512Z,4.40
2023-02-05T15:18:37.410Z,1.70
2023-02-05T15:22:41.266Z,2.03
2023-02-05T15:27:00.920Z,1.40
2023-02-05T15:31:11.954Z,1.87
2023-02-05T15:35:16.986Z,3.77
2023-02-05T15:39:43.432Z,2.63
2023-02-05T15:44:10.228Z,4.43
2023-02-05T15:48:14.454Z,3.27
2023-02-05T15:52:26.142Z,3.33
2023-02-05T15:56:36.664Z,2.50
2023-02-05T16:00:38.516Z,2.57
2023-02-05T16:04:40.856Z,3.87
2023-02-05T16:08:47.687Z,3.50
2023-02-05T16:13:14.876Z,4.53
2023-02-05T16:17:27.884Z,4.03
2023-02-05T16:21:38.089Z,4.87
2023-02-05T16:26:04.749Z,4.33
2023-02-05T16:30:16.696Z,4.60
2023-02-05T16:34:18.779Z,3.17
2023-02-05T16:38:23.972Z,4.93
2023-02-05T16:42:44.417Z,3.73
2023-02-05T16:46:52.711Z,4.03
2023-02-05T16:50:56.706Z,7.37
2023-02-05T16:55:28.451Z,3.00
2023-02-05T16:59:55.996Z,3.87
2023-02-05T17:03:57.840Z,6.13
2023-02-05T17:08:02.341Z,4.20
2023-02-05T17:12:37.394Z,5.23
2023-02-05T17:16:42.834Z,5.13
2023-02-05T17:20:47.293Z,5.33
2023-02-05T17:24:49.908Z,7.90
2023-02-05T17:29:05.775Z,3.57
2023-02-05T17:33:28.866Z,5.43
2023-02-05T17:37:30.656Z,4.57
2023-02-05T17:41:54.512Z,7.13
2023-02-05T17:45:56.391Z,5.97
2023-02-05T17:49:58.271Z,8.97
2023-02-05T17:54:00.181Z,6.00
2023-02-05T17:58:02.930Z,8.05
2023-02-05T18:02:06.471Z,7.07
2023-02-05T18:06:09.651Z,7.63
2023-02-05T18:10:23.162Z,7.07
2023-02-05T18:14:25.451Z,7.83
2023-02-05T18:18:28.514Z,7.57
2023-02-05T18:22:31.396Z,7.47
2023-02-05T18:26:33.432Z,7.80
2023-02-05T18:30:35.772Z,10.10
2023-02-05T18:34:38.106Z,8.03
2023-02-05T18:38:40.658Z,6.90
2023-02-05T18:42:42.828Z,12.87
2023-02-05T18:46:47.895Z,7.23
2023-02-05T18:50:49.709Z,10.10
2023-02-05T18:54:55.099Z,9.80
2023-02-05T18:59:01.581Z,11.93
2023-02-05T19:03:07.612Z,10.80
2023-02-05T19:07:09.533Z,10.53
2023-02-05T19:11:27.848Z,12.90
2023-02-05T19:15:29.928Z,13.90
2023-02-05T19:19:32.170Z,12.60
2023-02-05T19:23:36.689Z,10.27
2023-02-05T19:27:38.743Z,10.57
2023-02-05T19:31:41.833Z,10.83
2023-02-05T19:35:44.899Z,12.93
2023-02-05T19:39:49.653Z,13.33
2023-02-05T19:44:08.396Z,14.87
2023-02-05T19:48:13.314Z,14.67
2023-02-05T19:52:21.950Z,14.27
2023-02-05T19:56:24.432Z,18.47
2023-02-05T20:00:38.331Z,17.17
2023-02-05T20:04:43.696Z,18.27
2023-02-05T20:08:48.782Z,20.37
2023-02-05T20:13:00.468Z,17.40
2023-02-05T20:17:05.147Z,20.37
2023-02-05T20:21:15.491Z,18.87
2023-02-05T20:25:32.126Z,20.43
2023-02-05T20:29:52.998Z,22.00
2023-02-05T20:34:00.899Z,20.20
2023-02-05T20:38:02.978Z,21.93
2023-02-05T20:42:07.528Z,16.33
2023-02-05T20:46:29.325Z,17.90
2023-02-05T20:50:33.142Z,16.67
2023-02-05T20:54:35.754Z,18.60
2023-02-05T20:58:37.917Z,15.77
2023-02-05T21:02:47.850Z,16.87
2023-02-05T21:06:57.425Z,19.80
2023-02-05T21:11:07.852Z,15.63
2023-02-05T21:15:19.252Z,20.27
2023-02-05T21:19:21.329Z,16.13
2023-02-05T21:23:25.398Z,14.83
2023-02-05T21:27:27.302Z,18.80
2023-02-05T21:31:35.801Z,16.97
2023-02-05T21:35:38.829Z,12.97
2023-02-05T21:39:41.033Z,14.20
2023-02-05T21:43:43.313Z,15.47
2023-02-05T21:47:45.416Z,15.47
2023-02-05T21:51:48.341Z,17.47
2023-02-05T21:55:50.470Z,15.40
2023-02-05T21:59:52.846Z,14.57
2023-02-05T22:04:07.360Z,24.23
2023-02-05T22:08:11.752Z,19.43
2023-02-05T22:12:14.224Z,17.33
2023-02-05T22:16:19.299Z,16.60
2023-02-05T22:20:21.193Z,15.57
2023-02-05T22:24:25.608Z,15.37
2023-02-05T22:28:27.721Z,17.00
2023-02-05T22:32:29.597Z,17.00
2023-02-05T22:36:32.602Z,15.63
2023-02-05T22:40:34.463Z,15.83
2023-02-05T22:44:36.435Z,15.77
2023-02-05T22:48:40.003Z,14.10
2023-02-05T22:52:41.823Z,15.03
2023-02-05T22:56:44.313Z,15.90
2023-02-05T23:00:46.400Z,17.70
2023-02-05T23:04:48.210Z,16.73
2023-02-05T23:09:08.466Z,13.20
2023-02-05T23:13:10.332Z,13.03
2023-02-05T23:17:12.126Z,12.87
2023-02-05T23:21:22.130Z,12.67
2023-02-05T23:25:24.264Z,13.33
2023-02-05T23:29:27.078Z,13.83
2023-02-05T23:33:29.359Z,12.83
2023-02-05T23:37:31.256Z,11.83
2023-02-05T23:41:36.446Z,11.57
2023-02-05T23:45:38.626Z,12.83
2023-02-05T23:49:40.492Z,14.23
2023-02-05T23:53:42.211Z,11.60
2023-02-05T23:57:44.142Z,12.17
